Appleton, New York
Current Conditions -  °F | °C
As of 1:53 PM on Thursday 30 Oct 2014 (Local Time) from KIAG Reporting Station
Broken Clouds Broken Clouds  
Wind Chill:   Ceiling: 3900
Heat Index:   Visibility: 10mi
Dew Point:   Wind: 12mph
Humidity: 63%   Direction: 310°NW
Pressure: 30.06"   Gusts: NA
Location:  43.33°N, 78.65°W
Report Text: KIAG 301753Z 31010KT 10SM SCT030 BKN039 08/02 A3006 RMK AO2 SLP187 T00830017 10089 20017 58006
Loading
Personal Weather Stations






























Interactive Weather Map
Tropical Storm Tracking
New forecast layout! Learn more

10-Day Weather Forecast

Advertisements
Track Severe Weather on mobile